Main page
METAR-TAF:

METAR-TAF

Airports :

Kristianstad Airport

Kristianstad, Sweden

latitude: 55-55N, longitude: 014-05E, elevation: 23 m

Current weather observation

The report was made 25 minutes ago, at 15:20 UTC
Wind 4 kt from the East/Southeast, varying between East/Northeast and South/Southeast
Temperature 21°C
Humidity 78%
Pressure 1006 hPa
Visibility 10 km or more
Few clouds at a height of 1600 ft

METAR: ESMK 201520Z 12004KT 070V160 9999 FEW016 21/17 Q1006

Time: 17:45 (15:45 UTC)

Forecast

The report was made 1 hour and 41 minutes ago, at 14:04 UTC
Forecast valid from 20 at 15 UTC to 20 at 20 UTC
Wind 2 kt from variable directions
Visibility: 7000 m
Broken clouds at a height of 600 ft
Becoming
from 20 at 15 UTC to 20 at 17 UTC
Scattered clouds at a height of 600 ft
Becoming
from 20 at 19 UTC to 20 at 20 UTC
Visibility: 0400 m
at a height of 100 ft
fog

TAF: ESMK 201404Z 2015/2020 VRB02KT 7000 BKN006 BECMG 2015/2017 SCT006 BECMG 2019/2020 0400 FG VV001

Weather observations and forecasts of more than 4000 airports (METAR and TAF reports).

The available stations are represented by yellow and red dots on the map.

Hover mouse over dot to see the name of the station.

Then click to see weather observations and forecasts.

To change the map : click on the green buttons with a black cross to zoom in, on the green button with a dash to zoom out, or on the green arrows for adjacent maps.


METAR-TAF: